FNMA

Malanje

Malanje, Angola
METAR FNMA 231500Z 29006KT 9999 BKN015 FEW017CB BKN070 28/25 Q1011
Observed Flight Rules
Feb-23 @ 15:00 UTC (8 hours ago) Marginal Visual Flight Rules
Wind Visibility Clouds
290° at 6 knots 10,000+ meters
  • Broken at 1,500' AGL
  • Few at 1,700' AGL
  • Broken at 7,000' AGL
Temperatures Readings
Current 28°C / 82°F
Dewpoint 25°C / 77°F
Humidity 84%
Altimeter 29.85" Hg
Pressure 1011 hPa
Elevation 1173
METAR FNMA 231500Z 29006KT 9999 BKN015 FEW017CB BKN070 28/25 Q1011
Observed Flight Rules
Feb-23 @ 15:00 UTC
(8 hours ago)
MVFR
Wind Visibility
290° at 6 knots 10,000+ meters
Clouds
  • Broken at 1,500' AGL
  • Few at 1,700' AGL
  • Broken at 7,000' AGL
Temperature Dewpoint
28°C / 82°F 25°C / 77°F
Humidity Altimeter Pressure
84% 29.85" Hg 1011 hPa